Aérodrome :
LOGIN :

S'inscrire | Disclaimer

   EN    FR    IT 

 










Légende :    VFR   VFR Marginal   IFR   IFR Intensif   IFR Très Intensif
Visi : 
Plafond : 
>= 8 km
>= 3000ft
5 à 8 km
1000 à 3000 ft
1500m à 5 km
500 à 1000 ft
800 à 1500m
200 à 500 ft
< 800m
< 200 ft
Symboles :   Orages  Brouillard  Fortes neiges  Fortes précipitations  Vent > 20 kt
SIGMETs :   Divers  Orages  Givrage  Turbulence  Onde Orograph.  Cendres Volcan.







- Altitude de l'aérodrome : 158 ft
- Code IATA : QAR


EHDL - Deelen Airbase

DERNIER METAR :
  • 210355Z AUTO 34002KT 9999 NCD 14/12 Q1010 BLU

METARs EXPIRÉS :
  • 210325Z AUTO 32002KT 9999 FEW110 14/12 Q1010 BLU
  • 210255Z AUTO 28002KT 9999 NCD 15/12 Q1010 BLU
  • 210225Z AUTO 31003KT 9999 OVC100 16/12 Q1010 BLU
  • 210155Z AUTO 36003KT 330V030 9999 OVC078 17/13 Q1010 BLU
  • 210125Z AUTO VRB02KT 9999 FEW079 BKN096 17/13 Q1011 BLU

Prévision TAF périmée.
Pas de NOTAMs connus pour ce terrain.



MET'MAP, la Météo Aéronautique d'un coup d'oeil ! - Copyright ORBIFLY Décembre 2007 - Disclaimer

ORBIFLY MET'MAP TEAM :

Programmation & Développement : Alexandra Zaïnal
Conception & Développement : Baudouin d'Aumeries
Co-Programmation & Développement : Marc-Olivier Méhu
Soutien technique & logistique : Manuel Goepfert

Contact : metmap@orbifly.com




SOURCES & CREDITS :

   NOAA